sensor_id;sensor_type;location;lat;lon;timestamp;noise_LAeq;noise_LA_min;noise_LA_max;noise_LA01;noise_LA95
67320;Laerm;57665;51.436;5.978;2023-06-10T00:00:06;39.48;37.97;44.36;;
67320;Laerm;57665;51.436;5.978;2023-06-10T00:00:17;39.59;38.08;45.16;;
67320;Laerm;57665;51.436;5.978;2023-06-10T00:00:27;38.96;37.61;40.03;;
67320;Laerm;57665;51.436;5.978;2023-06-10T00:00:41;39.30;38.16;41.24;;
67320;Laerm;57665;51.436;5.978;2023-06-10T00:00:52;39.55;38.13;41.90;;
67320;Laerm;57665;51.436;5.978;2023-06-10T00:01:02;39.16;37.67;40.77;;
67320;Laerm;57665;51.436;5.978;2023-06-10T00:01:13;39.05;37.95;39.98;;
67320;Laerm;57665;51.436;5.978;2023-06-10T00:01:23;43.49;38.38;49.14;;
67320;Laerm;57665;51.436;5.978;2023-06-10T00:01:34;39.58;38.09;42.17;;
67320;Laerm;57665;51.436;5.978;2023-06-10T00:01:46;39.24;38.05;40.32;;
67320;Laerm;57665;51.436;5.978;2023-06-10T00:01:59;39.05;37.62;40.16;;
67320;Laerm;57665;51.436;5.978;2023-06-10T00:02:10;39.14;37.92;40.27;;
67320;Laerm;57665;51.436;5.978;2023-06-10T00:02:20;39.05;38.05;40.17;;
67320;Laerm;57665;51.436;5.978;2023-06-10T00:02:30;39.10;37.96;40.08;;
67320;Laerm;57665;51.436;5.978;2023-06-10T00:02:41;39.06;37.93;39.92;;
67320;Laerm;57665;51.436;5.978;2023-06-10T00:02:51;39.11;37.98;40.31;;
67320;Laerm;57665;51.436;5.978;2023-06-10T00:03:04;39.00;38.01;40.70;;
67320;Laerm;57665;51.436;5.978;2023-06-10T00:03:14;38.99;38.01;39.89;;
67320;Laerm;57665;51.436;5.978;2023-06-10T00:03:24;39.03;37.93;40.49;;
67320;Laerm;57665;51.436;5.978;2023-06-10T00:03:35;39.06;37.91;40.09;;
67320;Laerm;57665;51.436;5.978;2023-06-10T00:03:46;39.03;37.67;40.02;;
67320;Laerm;57665;51.436;5.978;2023-06-10T00:03:56;39.03;37.91;39.97;;
67320;Laerm;57665;51.436;5.978;2023-06-10T00:04:07;39.05;38.21;40.22;;
67320;Laerm;57665;51.436;5.978;2023-06-10T00:04:17;39.21;37.92;40.43;;
67320;Laerm;57665;51.436;5.978;2023-06-10T00:04:27;39.45;38.28;40.89;;
67320;Laerm;57665;51.436;5.978;2023-06-10T00:04:38;39.59;38.13;40.76;;
67320;Laerm;57665;51.436;5.978;2023-06-10T00:04:48;39.48;38.16;40.44;;
67320;Laerm;57665;51.436;5.978;2023-06-10T00:04:58;51.25;38.75;61.98;;
67320;Laerm;57665;51.436;5.978;2023-06-10T00:05:45;62.55;38.51;77.28;;
67320;Laerm;57665;51.436;5.978;2023-06-10T00:05:56;39.43;38.09;40.49;;
67320;Laerm;57665;51.436;5.978;2023-06-10T00:06:06;39.21;37.81;40.11;;
67320;Laerm;57665;51.436;5.978;2023-06-10T00:06:17;39.19;37.92;40.15;;
67320;Laerm;57665;51.436;5.978;2023-06-10T00:06:33;39.24;37.99;40.13;;
67320;Laerm;57665;51.436;5.978;2023-06-10T00:06:52;39.13;38.02;40.36;;
67320;Laerm;57665;51.436;5.978;2023-06-10T00:07:03;39.04;37.93;40.22;;
67320;Laerm;57665;51.436;5.978;2023-06-10T00:07:23;39.00;37.95;40.23;;
67320;Laerm;57665;51.436;5.978;2023-06-10T00:07:34;38.98;37.93;40.05;;
67320;Laerm;57665;51.436;5.978;2023-06-10T00:07:56;38.99;37.76;41.23;;
67320;Laerm;57665;51.436;5.978;2023-06-10T00:08:06;39.02;37.96;40.32;;
67320;Laerm;57665;51.436;5.978;2023-06-10T00:08:20;39.08;37.87;40.12;;
67320;Laerm;57665;51.436;5.978;2023-06-10T00:08:33;39.14;38.01;40.74;;
67320;Laerm;57665;51.436;5.978;2023-06-10T00:08:47;39.09;38.02;40.40;;
67320;Laerm;57665;51.436;5.978;2023-06-10T00:08:58;39.17;38.02;40.39;;
67320;Laerm;57665;51.436;5.978;2023-06-10T00:09:20;39.15;37.81;40.35;;
67320;Laerm;57665;51.436;5.978;2023-06-10T00:09:40;39.17;38.20;40.66;;
67320;Laerm;57665;51.436;5.978;2023-06-10T00:09:50;39.00;37.71;40.26;;
67320;Laerm;57665;51.436;5.978;2023-06-10T00:10:01;38.99;37.97;39.95;;
67320;Laerm;57665;51.436;5.978;2023-06-10T00:10:30;39.13;38.06;40.13;;
67320;Laerm;57665;51.436;5.978;2023-06-10T00:10:49;40.68;37.96;46.92;;
67320;Laerm;57665;51.436;5.978;2023-06-10T00:11:00;39.05;37.88;41.48;;
67320;Laerm;57665;51.436;5.978;2023-06-10T00:11:10;39.12;38.01;40.30;;
67320;Laerm;57665;51.436;5.978;2023-06-10T00:11:55;39.07;37.67;40.31;;
67320;Laerm;57665;51.436;5.978;2023-06-10T00:12:06;39.16;37.47;40.03;;
67320;Laerm;57665;51.436;5.978;2023-06-10T00:12:17;38.95;37.76;39.91;;
67320;Laerm;57665;51.436;5.978;2023-06-10T00:12:50;38.99;37.47;40.13;;
67320;Laerm;57665;51.436;5.978;2023-06-10T00:13:04;38.97;37.84;39.93;;
67320;Laerm;57665;51.436;5.978;2023-06-10T00:13:15;39.01;37.95;39.91;;
67320;Laerm;57665;51.436;5.978;2023-06-10T00:13:26;39.01;38.03;40.36;;
67320;Laerm;57665;51.436;5.978;2023-06-10T00:13:36;39.04;37.89;40.17;;
67320;Laerm;57665;51.436;5.978;2023-06-10T00:13:47;38.93;38.09;39.91;;
67320;Laerm;57665;51.436;5.978;2023-06-10T00:13:57;39.02;37.94;40.17;;
67320;Laerm;57665;51.436;5.978;2023-06-10T00:14:22;38.98;37.78;40.27;;
67320;Laerm;57665;51.436;5.978;2023-06-10T00:14:33;38.91;37.58;39.81;;
67320;Laerm;57665;51.436;5.978;2023-06-10T00:14:43;39.00;37.72;40.09;;
67320;Laerm;57665;51.436;5.978;2023-06-10T00:14:53;39.00;37.77;39.88;;
67320;Laerm;57665;51.436;5.978;2023-06-10T00:15:04;39.02;37.59;40.21;;
67320;Laerm;57665;51.436;5.978;2023-06-10T00:15:15;39.06;37.74;40.12;;
67320;Laerm;57665;51.436;5.978;2023-06-10T00:15:28;39.04;38.20;40.32;;
67320;Laerm;57665;51.436;5.978;2023-06-10T00:15:38;39.04;38.07;40.32;;
67320;Laerm;57665;51.436;5.978;2023-06-10T00:15:48;38.89;37.43;40.04;;
67320;Laerm;57665;51.436;5.978;2023-06-10T00:15:59;39.05;37.84;40.44;;
67320;Laerm;57665;51.436;5.978;2023-06-10T00:16:09;39.11;37.97;39.95;;
67320;Laerm;57665;51.436;5.978;2023-06-10T00:16:22;39.10;38.06;40.27;;
67320;Laerm;57665;51.436;5.978;2023-06-10T00:16:38;38.91;37.91;40.01;;
67320;Laerm;57665;51.436;5.978;2023-06-10T00:16:48;39.01;37.77;40.14;;
67320;Laerm;57665;51.436;5.978;2023-06-10T00:16:59;39.02;37.68;39.96;;
67320;Laerm;57665;51.436;5.978;2023-06-10T00:17:09;38.99;38.03;39.90;;
67320;Laerm;57665;51.436;5.978;2023-06-10T00:17:20;39.01;38.04;40.04;;
67320;Laerm;57665;51.436;5.978;2023-06-10T00:17:30;38.96;37.96;39.81;;
67320;Laerm;57665;51.436;5.978;2023-06-10T00:17:40;38.99;38.07;39.93;;
67320;Laerm;57665;51.436;5.978;2023-06-10T00:17:51;39.18;38.01;40.06;;
67320;Laerm;57665;51.436;5.978;2023-06-10T00:18:03;39.03;37.90;40.41;;
67320;Laerm;57665;51.436;5.978;2023-06-10T00:18:14;38.95;37.96;40.09;;
67320;Laerm;57665;51.436;5.978;2023-06-10T00:18:24;39.09;38.18;39.93;;
67320;Laerm;57665;51.436;5.978;2023-06-10T00:18:36;39.08;38.02;39.89;;
67320;Laerm;57665;51.436;5.978;2023-06-10T00:18:49;39.20;38.00;40.75;;
67320;Laerm;57665;51.436;5.978;2023-06-10T00:19:01;39.28;38.23;40.30;;
67320;Laerm;57665;51.436;5.978;2023-06-10T00:19:12;39.30;38.08;40.39;;
67320;Laerm;57665;51.436;5.978;2023-06-10T00:19:25;62.76;38.75;74.47;;
67320;Laerm;57665;51.436;5.978;2023-06-10T00:19:36;71.60;66.41;77.73;;
67320;Laerm;57665;51.436;5.978;2023-06-10T00:19:46;58.71;39.80;71.26;;
67320;Laerm;57665;51.436;5.978;2023-06-10T00:19:57;40.47;38.58;42.09;;
67320;Laerm;57665;51.436;5.978;2023-06-10T00:20:10;39.71;38.54;40.99;;
67320;Laerm;57665;51.436;5.978;2023-06-10T00:20:23;39.54;38.33;41.48;;
67320;Laerm;57665;51.436;5.978;2023-06-10T00:20:50;39.47;38.06;41.20;;
67320;Laerm;57665;51.436;5.978;2023-06-10T00:21:03;39.37;38.37;41.97;;
67320;Laerm;57665;51.436;5.978;2023-06-10T00:21:23;39.18;37.95;42.82;;
67320;Laerm;57665;51.436;5.978;2023-06-10T00:21:34;39.15;37.72;41.61;;
67320;Laerm;57665;51.436;5.978;2023-06-10T00:21:53;39.15;38.02;41.85;;
67320;Laerm;57665;51.436;5.978;2023-06-10T00:22:03;39.04;37.94;40.94;;
67320;Laerm;57665;51.436;5.978;2023-06-10T00:22:14;39.01;38.09;39.96;;
67320;Laerm;57665;51.436;5.978;2023-06-10T00:22:25;39.03;38.08;40.11;;
67320;Laerm;57665;51.436;5.978;2023-06-10T00:22:42;39.03;37.88;39.81;;
67320;Laerm;57665;51.436;5.978;2023-06-10T00:22:56;41.35;37.95;47.09;;
67320;Laerm;57665;51.436;5.978;2023-06-10T00:23:07;39.47;38.41;41.19;;
67320;Laerm;57665;51.436;5.978;2023-06-10T00:23:21;39.17;37.87;40.47;;
67320;Laerm;57665;51.436;5.978;2023-06-10T00:23:32;38.96;37.81;40.10;;
67320;Laerm;57665;51.436;5.978;2023-06-10T00:23:48;39.06;37.87;40.29;;
67320;Laerm;57665;51.436;5.978;2023-06-10T00:23:58;39.03;37.84;40.04;;
67320;Laerm;57665;51.436;5.978;2023-06-10T00:24:13;39.04;37.89;40.04;;
67320;Laerm;57665;51.436;5.978;2023-06-10T00:24:26;39.04;37.92;40.06;;
67320;Laerm;57665;51.436;5.978;2023-06-10T00:24:36;39.10;38.02;40.03;;
67320;Laerm;57665;51.436;5.978;2023-06-10T00:25:13;39.78;37.88;43.54;;
67320;Laerm;57665;51.436;5.978;2023-06-10T00:25:29;39.19;38.12;40.15;;
67320;Laerm;57665;51.436;5.978;2023-06-10T00:25:39;39.08;37.85;40.10;;
67320;Laerm;57665;51.436;5.978;2023-06-10T00:25:49;38.96;37.87;39.94;;
67320;Laerm;57665;51.436;5.978;2023-06-10T00:26:00;39.02;38.05;40.01;;
67320;Laerm;57665;51.436;5.978;2023-06-10T00:26:10;39.01;37.68;39.96;;
67320;Laerm;57665;51.436;5.978;2023-06-10T00:26:23;39.21;38.12;40.31;;
67320;Laerm;57665;51.436;5.978;2023-06-10T00:26:33;39.21;38.21;40.29;;
67320;Laerm;57665;51.436;5.978;2023-06-10T00:26:44;39.17;37.96;40.18;;
67320;Laerm;57665;51.436;5.978;2023-06-10T00:27:15;39.24;38.08;40.23;;
67320;Laerm;57665;51.436;5.978;2023-06-10T00:27:25;39.22;37.76;40.36;;
67320;Laerm;57665;51.436;5.978;2023-06-10T00:27:41;39.26;38.13;47.44;;
67320;Laerm;57665;51.436;5.978;2023-06-10T00:27:51;39.08;38.18;40.26;;
67320;Laerm;57665;51.436;5.978;2023-06-10T00:28:10;39.08;37.89;40.66;;
67320;Laerm;57665;51.436;5.978;2023-06-10T00:28:20;39.00;37.99;40.13;;
67320;Laerm;57665;51.436;5.978;2023-06-10T00:28:33;39.03;37.83;40.01;;
67320;Laerm;57665;51.436;5.978;2023-06-10T00:28:43;39.01;37.94;39.88;;
67320;Laerm;57665;51.436;5.978;2023-06-10T00:28:55;39.07;38.12;40.19;;
67320;Laerm;57665;51.436;5.978;2023-06-10T00:29:05;39.06;37.86;40.04;;
67320;Laerm;57665;51.436;5.978;2023-06-10T00:29:15;39.04;37.86;40.04;;
67320;Laerm;57665;51.436;5.978;2023-06-10T00:29:26;39.03;37.84;40.16;;
67320;Laerm;57665;51.436;5.978;2023-06-10T00:29:36;39.07;37.74;40.48;;
67320;Laerm;57665;51.436;5.978;2023-06-10T00:29:46;39.07;38.19;39.95;;
67320;Laerm;57665;51.436;5.978;2023-06-10T00:29:57;39.03;38.03;41.16;;
67320;Laerm;57665;51.436;5.978;2023-06-10T00:30:07;39.01;37.89;40.10;;
67320;Laerm;57665;51.436;5.978;2023-06-10T00:30:18;39.00;37.77;40.30;;
67320;Laerm;57665;51.436;5.978;2023-06-10T00:30:28;39.08;38.17;40.13;;
67320;Laerm;57665;51.436;5.978;2023-06-10T00:30:38;39.18;38.05;40.16;;
67320;Laerm;57665;51.436;5.978;2023-06-10T00:30:48;39.14;38.10;40.05;;
67320;Laerm;57665;51.436;5.978;2023-06-10T00:30:59;39.08;37.73;40.09;;
67320;Laerm;57665;51.436;5.978;2023-06-10T00:31:09;39.81;37.99;46.23;;
67320;Laerm;57665;51.436;5.978;2023-06-10T00:31:19;39.20;38.29;40.10;;
67320;Laerm;57665;51.436;5.978;2023-06-10T00:31:30;39.13;38.11;40.53;;
67320;Laerm;57665;51.436;5.978;2023-06-10T00:31:40;39.20;38.21;40.57;;
67320;Laerm;57665;51.436;5.978;2023-06-10T00:31:51;40.39;38.57;42.50;;
67320;Laerm;57665;51.436;5.978;2023-06-10T00:32:03;40.49;38.48;43.25;;
67320;Laerm;57665;51.436;5.978;2023-06-10T00:32:14;39.12;38.06;40.07;;
67320;Laerm;57665;51.436;5.978;2023-06-10T00:32:27;39.15;38.10;39.97;;
67320;Laerm;57665;51.436;5.978;2023-06-10T00:32:37;39.11;38.00;40.37;;
67320;Laerm;57665;51.436;5.978;2023-06-10T00:32:48;39.01;38.07;40.29;;
67320;Laerm;57665;51.436;5.978;2023-06-10T00:33:00;39.11;37.93;40.09;;
67320;Laerm;57665;51.436;5.978;2023-06-10T00:33:11;39.13;38.09;40.44;;
67320;Laerm;57665;51.436;5.978;2023-06-10T00:33:21;39.03;38.03;40.03;;
67320;Laerm;57665;51.436;5.978;2023-06-10T00:33:40;39.10;37.98;40.09;;
67320;Laerm;57665;51.436;5.978;2023-06-10T00:33:51;39.12;37.92;40.50;;
67320;Laerm;57665;51.436;5.978;2023-06-10T00:34:04;39.14;38.13;40.09;;
67320;Laerm;57665;51.436;5.978;2023-06-10T00:34:14;39.18;38.23;40.37;;
67320;Laerm;57665;51.436;5.978;2023-06-10T00:34:25;39.13;37.96;40.25;;
67320;Laerm;57665;51.436;5.978;2023-06-10T00:34:51;39.27;37.93;40.57;;
67320;Laerm;57665;51.436;5.978;2023-06-10T00:35:10;39.40;38.23;40.36;;
67320;Laerm;57665;51.436;5.978;2023-06-10T00:35:21;39.42;38.12;42.62;;
67320;Laerm;57665;51.436;5.978;2023-06-10T00:35:31;39.47;38.22;40.63;;
67320;Laerm;57665;51.436;5.978;2023-06-10T00:36:02;39.37;38.43;40.69;;
67320;Laerm;57665;51.436;5.978;2023-06-10T00:36:12;39.23;37.93;40.27;;
67320;Laerm;57665;51.436;5.978;2023-06-10T00:36:34;39.15;37.91;40.28;;
67320;Laerm;57665;51.436;5.978;2023-06-10T00:36:45;39.11;38.12;40.25;;
67320;Laerm;57665;51.436;5.978;2023-06-10T00:36:56;39.13;38.02;40.21;;
67320;Laerm;57665;51.436;5.978;2023-06-10T00:37:06;39.05;37.93;40.14;;
67320;Laerm;57665;51.436;5.978;2023-06-10T00:37:16;39.13;38.16;40.13;;
67320;Laerm;57665;51.436;5.978;2023-06-10T00:37:29;39.05;38.09;40.17;;
67320;Laerm;57665;51.436;5.978;2023-06-10T00:37:40;39.16;37.98;40.03;;
67320;Laerm;57665;51.436;5.978;2023-06-10T00:37:50;39.18;38.20;40.35;;
67320;Laerm;57665;51.436;5.978;2023-06-10T00:38:07;39.10;38.06;39.92;;
67320;Laerm;57665;51.436;5.978;2023-06-10T00:38:17;39.14;38.17;40.28;;
67320;Laerm;57665;51.436;5.978;2023-06-10T00:38:36;39.06;37.94;39.92;;
67320;Laerm;57665;51.436;5.978;2023-06-10T00:38:49;39.15;38.13;40.18;;
67320;Laerm;57665;51.436;5.978;2023-06-10T00:39:00;39.13;37.98;40.39;;
67320;Laerm;57665;51.436;5.978;2023-06-10T00:39:13;39.13;38.16;40.13;;
67320;Laerm;57665;51.436;5.978;2023-06-10T00:39:29;39.20;37.76;43.41;;
67320;Laerm;57665;51.436;5.978;2023-06-10T00:39:39;39.17;37.87;40.42;;
67320;Laerm;57665;51.436;5.978;2023-06-10T00:39:49;39.11;37.71;40.26;;
67320;Laerm;57665;51.436;5.978;2023-06-10T00:40:00;39.08;37.91;40.21;;
67320;Laerm;57665;51.436;5.978;2023-06-10T00:40:13;39.19;38.04;40.18;;
67320;Laerm;57665;51.436;5.978;2023-06-10T00:40:23;39.26;38.28;40.37;;
67320;Laerm;57665;51.436;5.978;2023-06-10T00:40:38;39.19;38.14;40.42;;
67320;Laerm;57665;51.436;5.978;2023-06-10T00:40:48;39.26;38.36;40.74;;
67320;Laerm;57665;51.436;5.978;2023-06-10T00:40:59;39.23;38.12;40.13;;
67320;Laerm;57665;51.436;5.978;2023-06-10T00:41:09;39.22;37.89;40.23;;
67320;Laerm;57665;51.436;5.978;2023-06-10T00:41:20;39.24;38.18;40.57;;
67320;Laerm;57665;51.436;5.978;2023-06-10T00:41:30;42.96;38.11;56.03;;
67320;Laerm;57665;51.436;5.978;2023-06-10T00:41:41;39.25;38.31;40.30;;
67320;Laerm;57665;51.436;5.978;2023-06-10T00:41:51;39.16;37.96;40.19;;
67320;Laerm;57665;51.436;5.978;2023-06-10T00:42:01;39.26;38.22;40.28;;
67320;Laerm;57665;51.436;5.978;2023-06-10T00:42:11;39.14;38.00;40.18;;
67320;Laerm;57665;51.436;5.978;2023-06-10T00:42:25;39.18;37.99;40.26;;
67320;Laerm;57665;51.436;5.978;2023-06-10T00:42:36;39.15;37.96;40.14;;
67320;Laerm;57665;51.436;5.978;2023-06-10T00:42:46;39.10;38.13;40.04;;
67320;Laerm;57665;51.436;5.978;2023-06-10T00:42:56;39.20;38.00;40.47;;
67320;Laerm;57665;51.436;5.978;2023-06-10T00:43:07;39.24;37.92;40.15;;
67320;Laerm;57665;51.436;5.978;2023-06-10T00:43:17;39.27;38.16;43.50;;
67320;Laerm;57665;51.436;5.978;2023-06-10T00:43:35;39.17;38.06;40.03;;
67320;Laerm;57665;51.436;5.978;2023-06-10T00:43:45;39.34;37.95;41.05;;
67320;Laerm;57665;51.436;5.978;2023-06-10T00:43:56;39.34;38.32;40.43;;
67320;Laerm;57665;51.436;5.978;2023-06-10T00:44:06;39.69;38.33;41.47;;
67320;Laerm;57665;51.436;5.978;2023-06-10T00:44:16;39.20;37.78;40.22;;
67320;Laerm;57665;51.436;5.978;2023-06-10T00:44:27;39.22;38.16;40.04;;
67320;Laerm;57665;51.436;5.978;2023-06-10T00:44:37;39.14;38.28;40.34;;
67320;Laerm;57665;51.436;5.978;2023-06-10T00:44:47;39.22;37.99;40.19;;
67320;Laerm;57665;51.436;5.978;2023-06-10T00:44:58;39.15;38.25;41.94;;
67320;Laerm;57665;51.436;5.978;2023-06-10T00:45:08;39.19;38.16;40.14;;
67320;Laerm;57665;51.436;5.978;2023-06-10T00:45:19;39.24;38.23;41.16;;
67320;Laerm;57665;51.436;5.978;2023-06-10T00:45:29;39.24;38.33;40.58;;
67320;Laerm;57665;51.436;5.978;2023-06-10T00:45:39;39.16;38.14;40.26;;
67320;Laerm;57665;51.436;5.978;2023-06-10T00:45:49;39.13;38.21;40.09;;
67320;Laerm;57665;51.436;5.978;2023-06-10T00:46:00;39.11;37.88;40.38;;
67320;Laerm;57665;51.436;5.978;2023-06-10T00:46:21;39.15;37.89;40.36;;
67320;Laerm;57665;51.436;5.978;2023-06-10T00:46:31;39.21;38.02;40.59;;
67320;Laerm;57665;51.436;5.978;2023-06-10T00:46:42;39.20;38.10;40.19;;
67320;Laerm;57665;51.436;5.978;2023-06-10T00:46:53;39.19;37.91;40.02;;
67320;Laerm;57665;51.436;5.978;2023-06-10T00:47:05;39.12;38.01;40.14;;
67320;Laerm;57665;51.436;5.978;2023-06-10T00:47:16;39.20;38.11;40.28;;
67320;Laerm;57665;51.436;5.978;2023-06-10T00:47:27;39.11;38.17;40.36;;
67320;Laerm;57665;51.436;5.978;2023-06-10T00:47:37;39.19;37.98;40.06;;
67320;Laerm;57665;51.436;5.978;2023-06-10T00:47:51;39.26;37.70;40.33;;
67320;Laerm;57665;51.436;5.978;2023-06-10T00:48:04;39.22;37.92;40.61;;
67320;Laerm;57665;51.436;5.978;2023-06-10T00:48:15;39.15;38.23;40.42;;
67320;Laerm;57665;51.436;5.978;2023-06-10T00:48:28;39.20;37.96;40.23;;
67320;Laerm;57665;51.436;5.978;2023-06-10T00:48:41;39.12;37.86;40.03;;
67320;Laerm;57665;51.436;5.978;2023-06-10T00:48:52;39.14;38.11;40.28;;
67320;Laerm;57665;51.436;5.978;2023-06-10T00:49:02;39.18;38.31;40.29;;
67320;Laerm;57665;51.436;5.978;2023-06-10T00:49:13;39.17;38.24;40.11;;
67320;Laerm;57665;51.436;5.978;2023-06-10T00:49:23;39.14;38.14;40.13;;
67320;Laerm;57665;51.436;5.978;2023-06-10T00:49:34;39.18;37.90;40.36;;
67320;Laerm;57665;51.436;5.978;2023-06-10T00:49:45;39.31;38.13;40.24;;
67320;Laerm;57665;51.436;5.978;2023-06-10T00:49:55;39.33;38.40;40.41;;
67320;Laerm;57665;51.436;5.978;2023-06-10T00:50:06;39.27;38.12;40.30;;
67320;Laerm;57665;51.436;5.978;2023-06-10T00:50:17;39.30;38.03;40.37;;
67320;Laerm;57665;51.436;5.978;2023-06-10T00:50:27;39.37;38.06;40.44;;
67320;Laerm;57665;51.436;5.978;2023-06-10T00:50:38;39.35;38.23;40.44;;
67320;Laerm;57665;51.436;5.978;2023-06-10T00:50:49;39.25;38.15;40.24;;
67320;Laerm;57665;51.436;5.978;2023-06-10T00:50:59;39.23;37.89;40.34;;
67320;Laerm;57665;51.436;5.978;2023-06-10T00:51:10;39.30;38.14;40.54;;
67320;Laerm;57665;51.436;5.978;2023-06-10T00:51:20;39.25;38.19;40.10;;
67320;Laerm;57665;51.436;5.978;2023-06-10T00:51:45;39.36;38.12;41.04;;
67320;Laerm;57665;51.436;5.978;2023-06-10T00:51:55;39.65;38.37;42.20;;
67320;Laerm;57665;51.436;5.978;2023-06-10T00:52:05;40.06;38.45;46.10;;
67320;Laerm;57665;51.436;5.978;2023-06-10T00:52:16;40.09;38.58;44.21;;
67320;Laerm;57665;51.436;5.978;2023-06-10T00:52:28;39.44;38.31;40.53;;
67320;Laerm;57665;51.436;5.978;2023-06-10T00:52:40;39.44;38.39;40.68;;
67320;Laerm;57665;51.436;5.978;2023-06-10T00:52:54;39.47;38.40;40.51;;
67320;Laerm;57665;51.436;5.978;2023-06-10T00:53:04;39.50;38.49;40.44;;
67320;Laerm;57665;51.436;5.978;2023-06-10T00:53:15;39.43;38.04;40.61;;
67320;Laerm;57665;51.436;5.978;2023-06-10T00:53:26;39.36;38.23;40.52;;
67320;Laerm;57665;51.436;5.978;2023-06-10T00:53:39;39.45;38.48;40.36;;
67320;Laerm;57665;51.436;5.978;2023-06-10T00:53:51;39.33;37.54;40.16;;
67320;Laerm;57665;51.436;5.978;2023-06-10T00:54:02;39.37;38.23;40.27;;
67320;Laerm;57665;51.436;5.978;2023-06-10T00:54:13;39.38;38.19;40.78;;
67320;Laerm;57665;51.436;5.978;2023-06-10T00:54:23;39.29;38.11;40.42;;
67320;Laerm;57665;51.436;5.978;2023-06-10T00:54:39;39.37;38.06;40.22;;
67320;Laerm;57665;51.436;5.978;2023-06-10T00:54:56;39.30;38.04;40.31;;
67320;Laerm;57665;51.436;5.978;2023-06-10T00:55:06;39.35;37.89;40.66;;
67320;Laerm;57665;51.436;5.978;2023-06-10T00:55:17;39.39;38.15;40.29;;
67320;Laerm;57665;51.436;5.978;2023-06-10T00:55:28;39.47;38.31;40.33;;
67320;Laerm;57665;51.436;5.978;2023-06-10T00:55:38;39.37;38.25;40.51;;
67320;Laerm;57665;51.436;5.978;2023-06-10T00:55:51;39.36;38.48;40.98;;
67320;Laerm;57665;51.436;5.978;2023-06-10T00:56:01;39.39;38.11;40.61;;
67320;Laerm;57665;51.436;5.978;2023-06-10T00:56:15;39.35;38.13;40.33;;
67320;Laerm;57665;51.436;5.978;2023-06-10T00:56:25;39.37;38.11;40.46;;
67320;Laerm;57665;51.436;5.978;2023-06-10T00:56:39;39.32;38.33;40.36;;
67320;Laerm;57665;51.436;5.978;2023-06-10T00:56:49;39.39;38.25;40.30;;
67320;Laerm;57665;51.436;5.978;2023-06-10T00:57:00;39.57;38.42;40.46;;
67320;Laerm;57665;51.436;5.978;2023-06-10T00:57:17;39.42;38.47;40.69;;
67320;Laerm;57665;51.436;5.978;2023-06-10T00:57:27;40.72;38.19;47.14;;
67320;Laerm;57665;51.436;5.978;2023-06-10T00:57:37;66.34;45.38;72.04;;
67320;Laerm;57665;51.436;5.978;2023-06-10T00:58:00;70.56;64.82;77.05;;
67320;Laerm;57665;51.436;5.978;2023-06-10T00:58:10;61.47;39.68;73.27;;
67320;Laerm;57665;51.436;5.978;2023-06-10T00:58:22;40.23;38.63;42.15;;
67320;Laerm;57665;51.436;5.978;2023-06-10T00:58:32;39.50;38.49;40.69;;
67320;Laerm;57665;51.436;5.978;2023-06-10T00:58:51;39.65;38.53;40.76;;
67320;Laerm;57665;51.436;5.978;2023-06-10T00:59:02;39.63;38.78;40.80;;
67320;Laerm;57665;51.436;5.978;2023-06-10T00:59:21;39.41;38.36;40.41;;
67320;Laerm;57665;51.436;5.978;2023-06-10T00:59:32;39.41;38.19;40.44;;
67320;Laerm;57665;51.436;5.978;2023-06-10T00:59:43;39.28;38.37;40.17;;
67320;Laerm;57665;51.436;5.978;2023-06-10T00:59:57;39.46;38.46;40.43;;
67320;Laerm;57665;51.436;5.978;2023-06-10T01:00:08;40.18;38.45;44.89;;
67320;Laerm;57665;51.436;5.978;2023-06-10T01:00:18;39.73;38.28;45.24;;
67320;Laerm;57665;51.436;5.978;2023-06-10T01:00:29;39.38;37.70;40.35;;
67320;Laerm;57665;51.436;5.978;2023-06-10T01:00:39;39.45;38.25;40.36;;
67320;Laerm;57665;51.436;5.978;2023-06-10T01:00:49;39.32;37.96;40.58;;
67320;Laerm;57665;51.436;5.978;2023-06-10T01:00:59;39.33;38.37;40.31;;
67320;Laerm;57665;51.436;5.978;2023-06-10T01:01:10;39.33;37.81;40.46;;
67320;Laerm;57665;51.436;5.978;2023-06-10T01:01:23;39.34;38.04;40.47;;
67320;Laerm;57665;51.436;5.978;2023-06-10T01:01:33;39.26;38.27;40.22;;
67320;Laerm;57665;51.436;5.978;2023-06-10T01:01:44;39.35;38.43;40.27;;
67320;Laerm;57665;51.436;5.978;2023-06-10T01:02:06;39.31;38.12;40.36;;
67320;Laerm;57665;51.436;5.978;2023-06-10T01:02:26;39.27;38.09;40.29;;
67320;Laerm;57665;51.436;5.978;2023-06-10T01:02:43;39.36;38.06;40.60;;
67320;Laerm;57665;51.436;5.978;2023-06-10T01:02:53;39.36;38.22;40.35;;
67320;Laerm;57665;51.436;5.978;2023-06-10T01:03:06;39.50;38.48;40.71;;
67320;Laerm;57665;51.436;5.978;2023-06-10T01:03:27;39.31;38.14;40.38;;
67320;Laerm;57665;51.436;5.978;2023-06-10T01:03:39;39.37;38.29;40.27;;
67320;Laerm;57665;51.436;5.978;2023-06-10T01:04:24;39.30;38.24;40.47;;
67320;Laerm;57665;51.436;5.978;2023-06-10T01:04:35;39.30;38.09;40.30;;
67320;Laerm;57665;51.436;5.978;2023-06-10T01:04:47;39.21;38.11;40.17;;
67320;Laerm;57665;51.436;5.978;2023-06-10T01:05:04;39.30;38.20;40.16;;
67320;Laerm;57665;51.436;5.978;2023-06-10T01:05:15;39.26;38.08;40.24;;
67320;Laerm;57665;51.436;5.978;2023-06-10T01:05:25;39.29;38.46;40.18;;
67320;Laerm;57665;51.436;5.978;2023-06-10T01:05:57;39.37;38.02;40.49;;
67320;Laerm;57665;51.436;5.978;2023-06-10T01:06:20;39.34;38.31;40.28;;
67320;Laerm;57665;51.436;5.978;2023-06-10T01:07:38;39.36;38.02;40.54;;
67320;Laerm;57665;51.436;5.978;2023-06-10T01:07:56;39.33;38.30;40.65;;
67320;Laerm;57665;51.436;5.978;2023-06-10T01:08:39;39.37;38.15;40.61;;
67320;Laerm;57665;51.436;5.978;2023-06-10T01:08:54;39.30;38.09;40.32;;
67320;Laerm;57665;51.436;5.978;2023-06-10T01:09:22;39.36;38.11;40.48;;
67320;Laerm;57665;51.436;5.978;2023-06-10T01:09:38;39.35;38.19;40.37;;
67320;Laerm;57665;51.436;5.978;2023-06-10T01:09:54;39.34;38.13;40.44;;
67320;Laerm;57665;51.436;5.978;2023-06-10T01:10:11;39.38;38.37;40.37;;
67320;Laerm;57665;51.436;5.978;2023-06-10T01:10:29;39.43;38.10;40.63;;
67320;Laerm;57665;51.436;5.978;2023-06-10T01:10:43;39.32;37.92;40.41;;
67320;Laerm;57665;51.436;5.978;2023-06-10T01:10:57;39.38;38.01;40.44;;
67320;Laerm;57665;51.436;5.978;2023-06-10T01:11:12;39.44;38.35;40.69;;
67320;Laerm;57665;51.436;5.978;2023-06-10T01:11:25;39.37;38.27;40.26;;
67320;Laerm;57665;51.436;5.978;2023-06-10T01:11:43;39.39;38.12;40.35;;
67320;Laerm;57665;51.436;5.978;2023-06-10T01:12:02;39.48;38.50;40.59;;
67320;Laerm;57665;51.436;5.978;2023-06-10T01:12:52;39.43;38.23;40.51;;
67320;Laerm;57665;51.436;5.978;2023-06-10T01:13:09;39.46;38.22;40.54;;
67320;Laerm;57665;51.436;5.978;2023-06-10T01:13:22;39.39;38.36;40.35;;
67320;Laerm;57665;51.436;5.978;2023-06-10T01:13:33;39.50;38.31;40.54;;
67320;Laerm;57665;51.436;5.978;2023-06-10T01:13:45;39.71;38.68;40.87;;
67320;Laerm;57665;51.436;5.978;2023-06-10T01:13:56;42.17;38.82;46.26;;
67320;Laerm;57665;51.436;5.978;2023-06-10T01:14:08;47.22;39.93;54.52;;
67320;Laerm;57665;51.436;5.978;2023-06-10T01:14:19;40.67;39.13;42.71;;
67320;Laerm;57665;51.436;5.978;2023-06-10T01:14:57;39.58;38.27;40.90;;
67320;Laerm;57665;51.436;5.978;2023-06-10T01:15:08;39.52;38.36;40.64;;